Florence, WI (54121)

5:27 PM CST on January 23, 2017 (GMT -0600)
MD8757 | | Change Station

Elev 1256 ft 46.00 °N, 88.16 °W | Updated 50 seconds ago

Overcast
Overcast
34.0 °F
Feels Like 34 °F
N
0.0
Wind Variable Wind from West
Gusts 0.0 mph

Today
High -- | Low -- °F
--% Chance of Precip.
Yesterday
High -- | Low -- °F
Precip. -- in
Pressure 29.79 in
Visibility 10.0 miles
Clouds Overcast 700 ft
Windchill 34 °F
Dew Point 33 °F
Humidity 96%
Rainfall 0.00 in
Snow Depth Not available.
7:24 AM 4:46 PM
Waning Crescent, 15% visible
METAR KIMT 232254Z AUTO 32003KT 10SM OVC007 02/01 A2975 RMK AO2 CIG 004V009 SLP088 T00220006
Pressure 29.79 in
Visibility 10.0 miles
Clouds Overcast 700 ft
Windchill 34 °F
Dew Point 33 °F
Humidity 96%
Rainfall 0.00 in
Snow Depth Not available.
7:24 AM 4:46 PM
Waning Crescent, 15% visible
METAR KIMT 232254Z AUTO 32003KT 10SM OVC007 02/01 A2975 RMK AO2 CIG 004V009 SLP088 T00220006

Get Your Daily Forecast Email!

Thanks for signing up!

Be on the lookout for a verification email in your inbox.

You'll start receiving the daily forecast at 8 AM.

×

10-Day Weather Forecast

Almanac

Astronomy

Jan. 23, 2017 Rise Set
Actual Time
Civil Twilight
Nautical Twilight
Astronomical Twilight
Moon
Length of Visible Light
Length of Day
Tomorrow will be .
, % of the Moon is Illuminated

Today's Extremes

State Highs State Lows

Community

WunderPhotos

Upload Photos

1,962,540 photos uploaded!

WunderBlog® & News

Nearby

Air Quality

  Air Quality AQ Index Pollutant
Not available.

Snow Depth

Station Depth Elevation

Earthquake Activity

City Distance Mag. Time & Date
Minimum magnitude displayed is 2.5.

Coastal Water Temperatures

Place Temperature

Stations

Nearby Weather Stations

Station Location Temp. Windchill Dew Point Humidity Wind Precip. Elev Updated Type
                   

Watches & Warnings

There are currently no watches in effect.